createdAt,value
2022-09-12T00:01:14.739Z,95.50
2022-09-12T00:03:43.117Z,95.50
2022-09-12T00:06:14.107Z,95.50
2022-09-12T00:08:42.103Z,95.50
2022-09-12T00:11:11.742Z,95.50
2022-09-12T00:13:41.977Z,95.50
2022-09-12T00:16:18.040Z,95.50
2022-09-12T00:18:47.167Z,95.50
2022-09-12T00:21:15.649Z,95.50
2022-09-12T00:23:43.794Z,95.50
2022-09-12T00:26:12.083Z,95.50
2022-09-12T00:28:41.147Z,95.50
2022-09-12T00:31:10.987Z,95.50
2022-09-12T00:33:40.523Z,95.50
2022-09-12T00:36:11.242Z,95.50
2022-09-12T00:38:41.968Z,95.50
2022-09-12T00:41:16.248Z,95.50
2022-09-12T00:43:45.991Z,95.50
2022-09-12T00:46:22.195Z,95.50
2022-09-12T00:48:55.790Z,95.50
2022-09-12T00:51:24.313Z,95.50
2022-09-12T00:53:54.714Z,95.50
2022-09-12T00:56:23.937Z,95.50
2022-09-12T00:58:56.893Z,95.50
2022-09-12T01:01:27.374Z,95.50
2022-09-12T01:04:00.205Z,95.50
2022-09-12T01:06:29.663Z,95.50
2022-09-12T01:08:59.186Z,95.50
2022-09-12T01:11:28.095Z,95.50
2022-09-12T01:13:56.181Z,95.50
2022-09-12T01:16:24.170Z,95.50
2022-09-12T01:19:07.698Z,95.50
2022-09-12T01:21:43.404Z,95.50
2022-09-12T01:24:35.613Z,95.50
2022-09-12T01:27:41.020Z,95.50
2022-09-12T01:30:39.718Z,95.50
2022-09-12T01:33:35.831Z,95.50
2022-09-12T01:36:43.610Z,95.50
2022-09-12T01:39:21.334Z,95.50
2022-09-12T01:41:56.639Z,95.50
2022-09-12T01:44:34.625Z,95.50
2022-09-12T01:47:09.391Z,95.50
2022-09-12T01:49:42.938Z,95.50
2022-09-12T01:52:18.361Z,95.50
2022-09-12T01:54:49.936Z,95.50
2022-09-12T01:57:24.194Z,95.50
2022-09-12T01:59:56.708Z,95.50
2022-09-12T02:02:31.460Z,95.50
2022-09-12T02:05:05.837Z,95.50
2022-09-12T02:07:38.891Z,95.50
2022-09-12T02:10:11.014Z,95.50
2022-09-12T02:12:45.506Z,95.50
2022-09-12T02:15:16.114Z,95.50
2022-09-12T02:17:48.758Z,95.50
2022-09-12T02:20:43.975Z,95.50
2022-09-12T02:23:14.943Z,95.50
2022-09-12T02:25:46.842Z,95.50
2022-09-12T02:28:19.683Z,95.50
2022-09-12T02:30:56.386Z,95.50
2022-09-12T02:33:31.524Z,95.50
2022-09-12T02:36:05.122Z,95.50
2022-09-12T02:38:42.640Z,95.50
2022-09-12T02:41:10.927Z,95.50
2022-09-12T02:43:38.908Z,95.50
2022-09-12T02:46:12.042Z,95.50
2022-09-12T02:48:44.481Z,95.50
2022-09-12T02:51:13.044Z,95.50
2022-09-12T02:53:41.516Z,95.50
2022-09-12T02:56:15.354Z,95.50
2022-09-12T02:58:43.457Z,95.50
2022-09-12T03:01:20.499Z,95.50
2022-09-12T03:04:09.571Z,95.50
2022-09-12T03:06:46.058Z,95.50
2022-09-12T03:09:18.667Z,95.50
2022-09-12T03:12:06.968Z,95.50
2022-09-12T03:14:55.563Z,95.50
2022-09-12T03:17:35.415Z,95.50
2022-09-12T03:20:11.344Z,95.50
2022-09-12T03:22:51.196Z,95.50
2022-09-12T03:25:23.956Z,95.50
2022-09-12T03:27:59.624Z,95.50
2022-09-12T03:30:27.961Z,95.50
2022-09-12T03:32:56.297Z,95.50
2022-09-12T03:35:26.497Z,95.50
2022-09-12T03:37:54.643Z,95.50
2022-09-12T03:40:22.663Z,95.50
2022-09-12T03:42:50.582Z,95.50
2022-09-12T03:45:18.719Z,95.50
2022-09-12T03:47:46.671Z,95.50
2022-09-12T03:50:14.623Z,95.50
2022-09-12T03:52:43.971Z,95.50
2022-09-12T03:55:12.246Z,95.50
2022-09-12T03:57:40.471Z,95.50
2022-09-12T04:00:09.923Z,95.50
2022-09-12T04:02:38.527Z,95.50
2022-09-12T04:05:06.885Z,95.50
2022-09-12T04:07:34.796Z,95.50
2022-09-12T04:10:04.143Z,95.50
2022-09-12T04:12:32.185Z,95.50
2022-09-12T04:15:00.098Z,95.50
2022-09-12T04:17:28.028Z,95.50
2022-09-12T04:19:55.976Z,95.50
2022-09-12T04:22:24.375Z,95.50
2022-09-12T04:24:52.737Z,95.50
2022-09-12T04:27:22.099Z,95.50
2022-09-12T04:29:50.064Z,95.50
2022-09-12T04:32:18.845Z,95.50
2022-09-12T04:34:47.007Z,95.50
2022-09-12T04:37:15.583Z,95.50
2022-09-12T04:39:43.598Z,95.50
2022-09-12T04:42:11.610Z,95.50
2022-09-12T04:44:40.862Z,95.50
2022-09-12T04:47:08.889Z,95.50
2022-09-12T04:49:36.898Z,95.50
2022-09-12T04:52:04.883Z,95.50
2022-09-12T04:54:33.584Z,95.50
2022-09-12T04:57:01.498Z,95.50
2022-09-12T04:59:29.490Z,95.50
2022-09-12T05:01:58.820Z,95.50
2022-09-12T05:04:26.883Z,95.50
2022-09-12T05:06:54.878Z,95.50
2022-09-12T05:09:22.817Z,95.50
2022-09-12T05:12:06.162Z,95.50
2022-09-12T05:14:35.090Z,95.50
2022-09-12T05:17:06.117Z,95.50
2022-09-12T05:19:34.468Z,95.50
2022-09-12T05:22:02.533Z,95.50
2022-09-12T05:24:30.498Z,95.50
2022-09-12T05:26:58.464Z,95.50
2022-09-12T05:29:27.031Z,95.50
2022-09-12T05:31:54.989Z,95.50
2022-09-12T05:34:24.419Z,95.50
2022-09-12T05:36:52.399Z,95.50
2022-09-12T05:39:20.619Z,95.50
2022-09-12T05:41:48.980Z,95.50
2022-09-12T05:44:17.871Z,95.50
2022-09-12T05:46:48.553Z,95.50
2022-09-12T05:49:16.527Z,95.50
2022-09-12T05:51:46.569Z,95.50
2022-09-12T05:54:17.782Z,95.50
2022-09-12T05:56:46.373Z,95.50
2022-09-12T05:59:16.949Z,95.50
2022-09-12T06:01:45.638Z,95.50
2022-09-12T06:04:14.037Z,95.50
2022-09-12T06:06:44.940Z,95.50
2022-09-12T06:09:15.438Z,95.50
2022-09-12T06:11:44.281Z,95.50
2022-09-12T06:14:14.366Z,95.50
2022-09-12T06:16:42.823Z,95.50
2022-09-12T06:19:15.893Z,95.50
2022-09-12T06:21:44.079Z,95.50
2022-09-12T06:24:14.104Z,95.50
2022-09-12T06:26:42.269Z,95.50
2022-09-12T06:29:13.145Z,95.50
2022-09-12T06:31:42.716Z,95.50
2022-09-12T06:34:13.956Z,95.50
2022-09-12T06:36:43.939Z,95.50
2022-09-12T06:39:14.951Z,95.50
2022-09-12T06:41:44.353Z,95.50
2022-09-12T06:44:15.936Z,95.50
2022-09-12T06:46:44.249Z,95.50
2022-09-12T06:49:13.036Z,95.50
2022-09-12T06:51:43.281Z,95.50
2022-09-12T06:54:15.647Z,95.50
2022-09-12T06:56:43.949Z,95.50
2022-09-12T06:59:11.944Z,95.50
2022-09-12T07:01:40.171Z,95.50
2022-09-12T07:04:08.445Z,95.50
2022-09-12T07:06:38.877Z,95.50
2022-09-12T07:09:10.595Z,95.50
2022-09-12T07:11:41.760Z,95.50
2022-09-12T07:14:12.934Z,95.50
2022-09-12T07:16:41.000Z,95.50
2022-09-12T07:19:09.686Z,95.50
2022-09-12T07:21:39.966Z,95.50
2022-09-12T07:24:10.271Z,95.50
2022-09-12T07:26:42.036Z,94.60
2022-09-12T07:29:37.762Z,91.40
2022-09-12T07:32:09.848Z,87.40
2022-09-12T07:34:37.897Z,82.60
2022-09-12T07:37:05.927Z,80.90
2022-09-12T07:39:33.863Z,79.40
2022-09-12T07:42:05.427Z,76.60
2022-09-12T07:44:33.542Z,76.10
2022-09-12T07:47:01.853Z,73.40
2022-09-12T07:49:30.512Z,71.50
2022-09-12T07:51:58.530Z,71.40
2022-09-12T07:54:26.444Z,70.90
2022-09-12T07:56:54.405Z,69.40
2022-09-12T07:59:41.788Z,68.90
2022-09-12T08:02:17.075Z,67.40
2022-09-12T08:04:46.716Z,67.20
2022-09-12T08:07:19.157Z,69.20
2022-09-12T08:09:47.395Z,70.80
2022-09-12T08:12:16.517Z,71.70
2022-09-12T08:14:46.202Z,71.80
2022-09-12T08:17:14.311Z,72.40
2022-09-12T08:19:42.255Z,71.20
2022-09-12T08:22:10.623Z,71.00
2022-09-12T08:24:39.426Z,70.80
2022-09-12T08:27:07.567Z,71.10
2022-09-12T08:29:35.524Z,70.00
2022-09-12T08:32:05.133Z,70.40
2022-09-12T08:34:33.102Z,69.70
2022-09-12T08:37:01.141Z,68.80
2022-09-12T08:39:29.050Z,68.50
2022-09-12T08:42:01.655Z,68.50
2022-09-12T08:44:53.421Z,68.10
2022-09-12T08:47:27.429Z,67.80
2022-09-12T08:50:01.971Z,67.20
2022-09-12T08:52:37.296Z,66.90
2022-09-12T08:55:07.891Z,67.10
2022-09-12T08:57:35.837Z,68.10
2022-09-12T09:00:07.923Z,68.60
2022-09-12T09:03:06.371Z,68.20
2022-09-12T09:05:47.210Z,65.90
2022-09-12T09:08:36.608Z,65.40
2022-09-12T09:11:16.625Z,66.60
2022-09-12T09:14:15.797Z,66.20
2022-09-12T09:16:45.645Z,66.30
2022-09-12T09:19:20.326Z,65.40
2022-09-12T09:21:54.054Z,65.60
2022-09-12T09:24:27.163Z,64.40
2022-09-12T09:26:59.663Z,66.00
2022-09-12T09:29:31.111Z,65.40
2022-09-12T09:32:02.600Z,64.40
2022-09-12T09:34:33.143Z,62.90
2022-09-12T09:37:12.932Z,62.80
2022-09-12T09:39:55.335Z,62.10
2022-09-12T09:42:31.851Z,63.50
2022-09-12T09:45:02.299Z,63.80
2022-09-12T09:47:30.304Z,64.10
2022-09-12T09:50:00.359Z,63.90
2022-09-12T09:52:32.712Z,65.70
2022-09-12T09:55:02.687Z,69.90
2022-09-12T09:57:44.935Z,72.40
2022-09-12T10:00:27.690Z,72.70
2022-09-12T10:03:28.719Z,71.00
2022-09-12T10:06:01.355Z,68.10
2022-09-12T10:08:31.732Z,65.70
2022-09-12T10:11:02.945Z,65.50
2022-09-12T10:13:40.562Z,62.90
2022-09-12T10:16:20.436Z,62.20
2022-09-12T10:18:49.323Z,58.80
2022-09-12T10:21:23.421Z,57.00
2022-09-12T10:24:00.912Z,57.30
2022-09-12T10:26:34.910Z,57.50
2022-09-12T10:29:10.880Z,56.90
2022-09-12T10:31:46.529Z,56.90
2022-09-12T10:34:30.559Z,56.70
2022-09-12T10:37:06.663Z,56.40
2022-09-12T10:39:36.235Z,55.70
2022-09-12T10:42:05.645Z,54.40
2022-09-12T10:44:36.189Z,54.60
2022-09-12T10:47:24.171Z,55.70
2022-09-12T10:49:52.105Z,57.60
2022-09-12T10:52:25.977Z,57.60
2022-09-12T10:54:54.656Z,57.70
2022-09-12T10:57:55.357Z,58.10
2022-09-12T11:00:27.917Z,59.80
2022-09-12T11:03:06.823Z,61.60
2022-09-12T11:05:47.134Z,62.60
2022-09-12T11:08:38.250Z,61.60
2022-09-12T11:11:12.040Z,60.90
2022-09-12T11:14:02.128Z,61.80
2022-09-12T11:16:42.960Z,60.40
2022-09-12T11:19:33.867Z,58.80
2022-09-12T11:22:20.013Z,58.80
2022-09-12T11:25:13.010Z,59.20
2022-09-12T11:28:06.095Z,58.90
2022-09-12T11:30:44.062Z,58.90
2022-09-12T11:33:29.627Z,58.80
2022-09-12T11:36:00.967Z,58.10
2022-09-12T11:38:56.576Z,56.30
2022-09-12T11:41:31.478Z,55.00
2022-09-12T11:44:05.762Z,54.30
2022-09-12T11:46:37.217Z,53.70
2022-09-12T11:49:15.680Z,53.50
2022-09-12T11:51:50.602Z,52.90
2022-09-12T11:54:23.959Z,52.30
2022-09-12T11:57:02.326Z,51.60
2022-09-12T11:59:36.902Z,52.40
2022-09-12T12:02:11.851Z,53.20
2022-09-12T12:04:49.392Z,51.90
2022-09-12T12:07:17.343Z,51.90
2022-09-12T12:09:51.082Z,52.00
2022-09-12T12:12:24.898Z,50.90
2022-09-12T12:14:55.626Z,51.20
2022-09-12T12:17:25.865Z,50.80
2022-09-12T12:20:05.777Z,51.10
2022-09-12T12:22:36.062Z,52.10
2022-09-12T12:25:29.414Z,53.50
2022-09-12T12:28:01.731Z,53.70
2022-09-12T12:31:03.248Z,55.70
2022-09-12T12:34:01.374Z,55.30
2022-09-12T12:36:44.585Z,54.80
2022-09-12T12:40:05.010Z,53.10
2022-09-12T12:43:31.486Z,52.60
2022-09-12T12:46:12.524Z,53.50
2022-09-12T12:49:01.399Z,53.50
2022-09-12T12:51:40.055Z,53.70
2022-09-12T12:54:56.004Z,54.40
2022-09-12T12:57:48.698Z,54.10
2022-09-12T13:00:34.671Z,53.00
2022-09-12T13:03:10.662Z,53.10
2022-09-12T13:05:45.006Z,52.10
2022-09-12T13:08:31.179Z,53.00
2022-09-12T13:11:02.240Z,53.20
2022-09-12T13:13:36.962Z,52.80
2022-09-12T13:16:07.760Z,52.80
2022-09-12T13:18:43.858Z,52.90
2022-09-12T13:21:14.865Z,53.30
2022-09-12T13:23:43.555Z,53.20
2022-09-12T13:26:14.036Z,52.60
2022-09-12T13:28:42.091Z,51.60
2022-09-12T13:31:19.100Z,52.50
2022-09-12T13:33:49.297Z,53.60
2022-09-12T13:36:46.244Z,53.00
2022-09-12T13:39:20.910Z,53.60
2022-09-12T13:42:21.128Z,52.80
2022-09-12T13:44:51.919Z,52.80
2022-09-12T13:47:27.318Z,53.50
2022-09-12T13:49:56.970Z,51.60
2022-09-12T13:52:29.146Z,52.30
2022-09-12T13:54:59.755Z,53.30
2022-09-12T13:57:33.388Z,53.80
2022-09-12T14:00:08.749Z,53.20
2022-09-12T14:02:41.021Z,53.10
2022-09-12T14:05:20.096Z,52.10
2022-09-12T14:07:56.231Z,52.20
2022-09-12T14:10:31.798Z,51.40
2022-09-12T14:13:00.753Z,51.00
2022-09-12T14:15:32.183Z,51.10
2022-09-12T14:18:03.262Z,52.00
2022-09-12T14:20:33.189Z,53.70
2022-09-12T14:23:03.584Z,53.70
2022-09-12T14:25:39.047Z,53.50
2022-09-12T14:28:07.603Z,53.20
2022-09-12T14:30:37.465Z,53.20
2022-09-12T14:33:19.823Z,52.90
2022-09-12T14:35:49.658Z,53.80
2022-09-12T14:38:25.579Z,54.30
2022-09-12T14:41:00.826Z,55.20
2022-09-12T14:43:31.555Z,55.40
2022-09-12T14:46:02.077Z,56.80
2022-09-12T14:48:33.208Z,57.30
2022-09-12T14:51:01.514Z,57.50
2022-09-12T14:53:34.859Z,58.60
2022-09-12T14:56:11.212Z,59.20
2022-09-12T14:58:40.605Z,59.00
2022-09-12T15:01:26.497Z,59.30
2022-09-12T15:03:57.588Z,59.20
2022-09-12T15:06:29.559Z,59.30
2022-09-12T15:09:00.667Z,59.60
2022-09-12T15:11:30.082Z,59.50
2022-09-12T15:13:58.057Z,59.00
2022-09-12T15:16:26.264Z,59.00
2022-09-12T15:18:54.249Z,59.00
2022-09-12T15:21:23.641Z,59.00
2022-09-12T15:23:53.783Z,59.10
2022-09-12T15:26:23.784Z,59.40
2022-09-12T15:28:52.426Z,59.50
2022-09-12T15:31:25.639Z,59.80
2022-09-12T15:33:54.323Z,60.20
2022-09-12T15:36:24.939Z,60.30
2022-09-12T15:38:53.725Z,61.20
2022-09-12T15:41:23.763Z,61.10
2022-09-12T15:43:52.439Z,61.10
2022-09-12T15:46:21.266Z,61.20
2022-09-12T15:48:50.084Z,61.40
2022-09-12T15:51:20.377Z,61.60
2022-09-12T15:53:51.280Z,60.70
2022-09-12T15:56:21.312Z,60.00
2022-09-12T15:59:05.226Z,59.70
2022-09-12T16:01:33.251Z,59.20
2022-09-12T16:04:03.865Z,58.10
2022-09-12T16:06:37.207Z,58.00
2022-09-12T16:09:07.028Z,57.80
2022-09-12T16:11:35.231Z,57.10
2022-09-12T16:14:03.779Z,56.80
2022-09-12T16:16:32.267Z,57.30
2022-09-12T16:19:00.292Z,56.70
2022-09-12T16:21:28.265Z,57.00
2022-09-12T16:23:56.199Z,57.90
2022-09-12T16:26:25.522Z,58.70
2022-09-12T16:28:56.806Z,59.60
2022-09-12T16:31:25.204Z,59.70
2022-09-12T16:33:53.250Z,60.20
2022-09-12T16:36:22.767Z,60.90
2022-09-12T16:38:52.778Z,61.00
2022-09-12T16:41:22.455Z,61.60
2022-09-12T16:43:51.798Z,61.80
2022-09-12T16:46:21.825Z,62.60
2022-09-12T16:48:52.800Z,63.50
2022-09-12T16:51:23.617Z,64.00
2022-09-12T16:53:51.994Z,64.70
2022-09-12T16:56:20.131Z,65.20
2022-09-12T16:58:48.835Z,65.60
2022-09-12T17:01:20.407Z,66.00
2022-09-12T17:03:48.693Z,66.30
2022-09-12T17:06:18.853Z,66.50
2022-09-12T17:08:48.462Z,66.30
2022-09-12T17:11:21.860Z,66.80
2022-09-12T17:14:04.484Z,66.90
2022-09-12T17:16:35.954Z,67.30
2022-09-12T17:19:04.342Z,67.70
2022-09-12T17:21:32.837Z,68.20
2022-09-12T17:24:00.856Z,68.80
2022-09-12T17:26:28.835Z,69.10
2022-09-12T17:28:56.774Z,69.20
2022-09-12T17:31:26.511Z,69.40
2022-09-12T17:33:58.880Z,69.60
2022-09-12T17:36:27.750Z,70.10
2022-09-12T17:38:55.785Z,70.80
2022-09-12T17:41:26.098Z,71.10
2022-09-12T17:43:57.585Z,71.80
2022-09-12T17:46:27.250Z,72.30
2022-09-12T17:48:58.718Z,73.30
2022-09-12T17:51:28.966Z,74.60
2022-09-12T17:53:59.993Z,74.90
2022-09-12T17:56:29.562Z,75.50
2022-09-12T17:58:58.512Z,75.80
2022-09-12T18:01:45.313Z,75.90
2022-09-12T18:04:19.803Z,76.60
2022-09-12T18:06:49.099Z,76.10
2022-09-12T18:09:19.555Z,76.60
2022-09-12T18:11:49.581Z,77.40
2022-09-12T18:14:18.653Z,78.00
2022-09-12T18:16:47.063Z,78.50
2022-09-12T18:19:17.071Z,79.00
2022-09-12T18:21:47.189Z,79.90
2022-09-12T18:24:15.257Z,79.60
2022-09-12T18:26:43.978Z,79.30
2022-09-12T18:29:12.583Z,79.40
2022-09-12T18:31:40.705Z,79.70
2022-09-12T18:34:12.695Z,79.40
2022-09-12T18:36:43.225Z,80.00
2022-09-12T18:39:12.648Z,80.10
2022-09-12T18:41:41.030Z,79.60
2022-09-12T18:44:11.486Z,80.40
2022-09-12T18:46:39.616Z,80.60
2022-09-12T18:49:09.318Z,81.00
2022-09-12T18:51:39.989Z,80.90
2022-09-12T18:54:13.881Z,81.10
2022-09-12T18:56:43.923Z,81.70
2022-09-12T18:59:14.767Z,81.70
2022-09-12T19:01:44.334Z,81.80
2022-09-12T19:04:14.166Z,81.90
2022-09-12T19:06:43.862Z,82.10
2022-09-12T19:09:15.079Z,82.80
2022-09-12T19:11:48.887Z,83.20
2022-09-12T19:14:17.512Z,83.40
2022-09-12T19:16:45.579Z,83.40
2022-09-12T19:19:13.914Z,83.80
2022-09-12T19:21:42.942Z,83.30
2022-09-12T19:24:14.322Z,83.90
2022-09-12T19:26:42.507Z,84.30
2022-09-12T19:29:14.294Z,85.60
2022-09-12T19:31:43.138Z,86.00
2022-09-12T19:34:13.204Z,86.80
2022-09-12T19:36:46.761Z,87.20
2022-09-12T19:39:19.607Z,87.30
2022-09-12T19:41:48.362Z,87.10
2022-09-12T19:44:19.137Z,86.70
2022-09-12T19:46:47.235Z,86.20
2022-09-12T19:49:15.229Z,86.40
2022-09-12T19:51:43.821Z,87.10
2022-09-12T19:54:12.102Z,87.60
2022-09-12T19:56:41.533Z,88.10
2022-09-12T19:59:09.756Z,88.90
2022-09-12T20:01:38.009Z,89.40
2022-09-12T20:04:06.775Z,89.90
2022-09-12T20:06:34.853Z,90.10
2022-09-12T20:09:02.886Z,90.80
2022-09-12T20:11:31.285Z,90.90
2022-09-12T20:14:01.226Z,91.10
2022-09-12T20:16:30.945Z,91.40
2022-09-12T20:19:01.274Z,91.50
2022-09-12T20:21:32.967Z,91.80
2022-09-12T20:24:04.358Z,91.90
2022-09-12T20:26:32.623Z,92.10
2022-09-12T20:29:05.756Z,92.40
2022-09-12T20:31:34.314Z,92.90
2022-09-12T20:34:03.490Z,93.30
2022-09-12T20:36:31.472Z,93.50
2022-09-12T20:39:01.422Z,93.70
2022-09-12T20:41:31.617Z,93.60
2022-09-12T20:44:00.686Z,93.80
2022-09-12T20:46:30.257Z,94.20
2022-09-12T20:48:58.907Z,94.60
2022-09-12T20:51:29.485Z,94.60
2022-09-12T20:53:57.989Z,95.10
2022-09-12T20:56:27.380Z,95.50
2022-09-12T20:58:55.981Z,95.50
2022-09-12T21:01:25.709Z,95.30
2022-09-12T21:03:55.489Z,95.40
2022-09-12T21:06:26.388Z,95.50
2022-09-12T21:08:54.469Z,95.50
2022-09-12T21:11:22.490Z,95.50
2022-09-12T21:13:52.108Z,95.50
2022-09-12T21:16:21.828Z,95.50
2022-09-12T21:18:56.557Z,95.50
2022-09-12T21:21:26.482Z,95.50
2022-09-12T21:23:55.323Z,95.40
2022-09-12T21:26:23.394Z,94.90
2022-09-12T21:28:51.353Z,94.20
2022-09-12T21:31:20.471Z,94.60
2022-09-12T21:33:48.499Z,94.00
2022-09-12T21:36:18.063Z,93.90
2022-09-12T21:38:46.022Z,94.30
2022-09-12T21:41:15.679Z,93.60
2022-09-12T21:43:45.044Z,93.30
2022-09-12T21:46:13.311Z,93.50
2022-09-12T21:48:41.374Z,93.40
2022-09-12T21:51:09.449Z,93.20
2022-09-12T21:53:39.009Z,92.70
2022-09-12T21:56:08.870Z,92.40
2022-09-12T21:58:38.019Z,92.70
2022-09-12T22:01:08.686Z,92.60
2022-09-12T22:03:36.795Z,92.50
2022-09-12T22:06:07.266Z,92.90
2022-09-12T22:08:37.186Z,93.30
2022-09-12T22:11:09.615Z,93.40
2022-09-12T22:13:39.176Z,93.30
2022-09-12T22:16:07.994Z,93.50
2022-09-12T22:18:37.437Z,93.40
2022-09-12T22:21:07.084Z,93.60
2022-09-12T22:23:52.518Z,93.70
2022-09-12T22:26:22.195Z,93.90
2022-09-12T22:28:50.345Z,93.70
2022-09-12T22:31:19.108Z,93.20
2022-09-12T22:33:47.289Z,93.30
2022-09-12T22:36:15.663Z,93.70
2022-09-12T22:38:43.761Z,93.90
2022-09-12T22:41:13.291Z,94.50
2022-09-12T22:43:43.206Z,94.60
2022-09-12T22:46:13.235Z,95.20
2022-09-12T22:48:42.842Z,95.50
2022-09-12T22:51:12.616Z,95.50
2022-09-12T22:53:40.710Z,95.50
2022-09-12T22:56:09.849Z,95.50
2022-09-12T22:58:38.343Z,95.50
2022-09-12T23:01:08.405Z,95.50
2022-09-12T23:03:36.975Z,95.50
2022-09-12T23:06:05.954Z,95.50
2022-09-12T23:08:35.801Z,95.50
2022-09-12T23:11:04.681Z,95.50
2022-09-12T23:13:32.707Z,95.10
2022-09-12T23:16:01.372Z,94.70
2022-09-12T23:18:30.970Z,94.10
2022-09-12T23:21:01.011Z,94.60
2022-09-12T23:23:29.447Z,94.90
2022-09-12T23:26:05.587Z,95.00
2022-09-12T23:28:33.725Z,95.40
2022-09-12T23:31:02.358Z,95.40
2022-09-12T23:33:32.542Z,95.40
2022-09-12T23:36:01.740Z,95.20
2022-09-12T23:38:30.642Z,95.30
2022-09-12T23:40:59.145Z,94.90
2022-09-12T23:43:27.710Z,95.00
2022-09-12T23:45:55.781Z,95.20
2022-09-12T23:48:24.146Z,95.30
2022-09-12T23:50:53.819Z,95.20
2022-09-12T23:53:22.656Z,95.20
2022-09-12T23:55:50.837Z,95.20
2022-09-12T23:58:19.288Z,95.10
